< < Back
Terminal Aerodrome Forecast


Current Version              Previous Versions:   1  2  3  4  5  6  7  8  9  

Terminal Aerodrome Forecast

641
FTUS42 KJAX 201700
TAFJAX
TAF
KJAX 201720Z 2018/2118 02010KT 6SM -SHRA SCT020 OVC050
      TEMPO 2018/2022 04015G25KT 3SM SHRA OVC020
     FM202200 36008KT P6SM VCSH BKN035 OVC150
     FM210500 32005KT P6SM SCT025=



Latest METAR

196
SAUS80 KWBC 202200 CCA
MTRJAX
METAR KJAX 202156Z 02010KT 6SM -RA BR BKN011 BKN027 BKN050 BKN150 OVC250
22/22 A2993 RMK AO2 RAB31 SLP134 P0004 T02220217 $


USA.gov is the U.S. government's official web portal to all federal, state and local government web resources and services.